Time;durP1;ratioP1;P1;durP2;ratioP2;P2;SDS_P1;SDS_P2;PMS_P1;PMS_P2;Temp;Humidity;BMP_temperature;BMP_pressure;BME280_temperature;BME280_humidity;BME280_pressure;Samples;Min_cycle;Max_cycle;Signal;HPM_P1;HPM_P2
2023/05/14 00:09:31;;;;;;;28.83;19.33;;;;;;;11.09;66.54;101786.66;5095242;27;20163;-55
2023/05/14 00:11:57;;;;;;;59.95;31.23;;;;;;;11.05;66.78;101782.41;5090539;28;20055;-55
2023/05/14 00:14:24;;;;;;;26.23;15.15;;;;;;;11.05;67.01;101779.75;5090583;28;20121;-55
2023/05/14 00:16:50;;;;;;;37.08;21.63;;;;;;;11.07;67.41;101777.91;5075368;28;20057;-55
2023/05/14 00:19:17;;;;;;;29.17;19.95;;;;;;;11.07;67.84;101775.28;5071422;28;20366;-55
2023/05/14 00:21:43;;;;;;;35.17;18.35;;;;;;;11.08;67.39;101766.41;5084783;28;20109;-55
2023/05/14 00:24:10;;;;;;;16.10;12.32;;;;;;;11.09;67.00;101776.09;5070350;28;20110;-56
2023/05/14 00:26:36;;;;;;;22.75;13.57;;;;;;;11.05;67.31;101769.16;5070113;28;20049;-56
2023/05/14 00:29:03;;;;;;;16.42;12.35;;;;;;;11.05;67.07;101758.59;5070303;28;20408;-56
2023/05/14 00:31:29;;;;;;;19.67;11.23;;;;;;;11.00;67.41;101768.41;5070156;28;20098;-56
2023/05/14 00:33:56;;;;;;;20.48;13.77;;;;;;;11.00;67.02;101760.47;5074564;28;20056;-55
2023/05/14 00:36:22;;;;;;;22.42;12.60;;;;;;;10.98;67.31;101759.69;5108483;28;20055;-56
2023/05/14 00:38:49;;;;;;;18.08;12.50;;;;;;;10.95;67.45;101758.00;5091102;28;20071;-55
2023/05/14 00:41:15;;;;;;;20.88;14.18;;;;;;;10.96;67.87;101758.88;5083340;28;20075;-56
2023/05/14 00:43:42;;;;;;;25.77;18.27;;;;;;;10.97;67.42;101750.03;5076423;28;20052;-56
2023/05/14 00:46:08;;;;;;;26.48;18.30;;;;;;;10.95;67.70;101758.00;5089971;28;20101;-55
2023/05/14 00:48:35;;;;;;;20.17;14.57;;;;;;;10.94;67.78;101750.13;5089717;28;20072;-55
2023/05/14 00:51:02;;;;;;;32.13;17.98;;;;;;;10.92;67.77;101751.91;5089578;28;20389;-56
2023/05/14 00:53:28;;;;;;;21.63;15.20;;;;;;;10.89;68.24;101755.56;5077430;28;20060;-56
2023/05/14 00:55:55;;;;;;;22.15;14.63;;;;;;;10.86;67.77;101752.13;5089436;28;20044;-55
2023/05/14 00:58:23;;;;;;;25.33;17.40;;;;;;;10.82;68.03;101754.00;5073139;28;20511;-55
2023/05/14 01:00:49;;;;;;;20.30;13.52;;;;;;;10.81;67.88;101753.13;5068952;28;20206;-56
2023/05/14 01:03:16;;;;;;;25.90;17.58;;;;;;;10.76;68.04;101752.41;5087722;28;20139;-55
2023/05/14 01:06:05;;;;;;;32.88;19.67;;;;;;;10.72;68.29;101747.25;5082342;28;20056;-55
2023/05/14 01:08:49;;;;;;;24.58;17.63;;;;;;;10.63;69.22;101745.75;5082117;28;20052;-56
2023/05/14 01:11:23;;;;;;;22.98;16.00;;;;;;;10.60;69.21;101745.84;5098433;28;20089;-55
2023/05/14 01:14:44;;;;;;;18.73;14.50;;;;;;;10.57;69.07;101743.31;5090619;28;20040;-55
2023/05/14 01:17:14;;;;;;;21.55;12.82;;;;;;;10.52;69.05;101747.88;5042978;28;20476;-56
2023/05/14 01:19:42;;;;;;;17.45;12.23;;;;;;;10.45;69.85;101752.47;5098014;28;20051;-55
2023/05/14 01:22:10;;;;;;;17.35;13.07;;;;;;;10.39;69.69;101752.63;5087318;28;20474;-56
2023/05/14 01:24:37;;;;;;;18.77;13.50;;;;;;;10.33;69.56;101753.69;5076008;28;20048;-55
2023/05/14 01:27:25;;;;;;;18.42;13.32;;;;;;;10.27;69.74;101749.41;5075688;28;20052;-56
2023/05/14 01:30:08;;;;;;;19.63;12.23;;;;;;;10.19;70.51;101750.53;5075190;28;20117;-56
2023/05/14 01:32:36;;;;;;;17.13;12.70;;;;;;;10.17;70.37;101747.03;5090877;28;20506;-55
2023/05/14 01:35:06;;;;;;;19.17;13.45;;;;;;;10.14;70.83;101747.16;5093261;28;20054;-55
2023/05/14 01:37:33;;;;;;;19.30;12.20;;;;;;;10.07;70.36;101747.31;5086180;28;20071;-55
2023/05/14 01:40:00;;;;;;;20.80;12.68;;;;;;;10.01;70.68;101747.50;5107216;28;20055;-55
2023/05/14 01:42:28;;;;;;;16.88;12.90;;;;;;;9.94;71.25;101735.38;5095544;28;20449;-55
2023/05/14 01:44:55;;;;;;;15.85;12.38;;;;;;;9.90;71.48;101728.41;5110360;28;20052;-55
2023/05/14 01:47:21;;;;;;;19.08;13.15;;;;;;;9.87;71.65;101733.78;5109792;28;20207;-55
2023/05/14 01:49:48;;;;;;;20.02;13.27;;;;;;;9.80;71.79;101726.94;5101903;28;20055;-55
2023/05/14 01:52:14;;;;;;;20.48;14.07;;;;;;;9.78;71.74;101727.00;5096039;28;20048;-56
2023/05/14 01:54:41;;;;;;;15.68;12.65;;;;;;;9.73;71.91;101727.09;5097337;28;20626;-55
2023/05/14 01:57:07;;;;;;;21.55;13.07;;;;;;;9.65;72.27;101722.94;5098618;28;20048;-55
2023/05/14 01:59:33;;;;;;;20.58;13.27;;;;;;;9.60;71.99;101724.84;5115065;28;20059;-55
2023/05/14 02:02:00;;;;;;;21.60;13.70;;;;;;;9.56;72.48;101729.31;5109823;28;20055;-55
2023/05/14 02:04:26;;;;;;;15.50;13.52;;;;;;;9.50;72.57;101722.44;5091509;28;20500;-55
2023/05/14 02:06:53;;;;;;;19.00;13.73;;;;;;;9.45;73.43;101723.44;5094382;28;20086;-56
2023/05/14 02:09:20;;;;;;;23.88;15.50;;;;;;;9.41;73.64;101725.28;5094709;28;20059;-55
2023/05/14 02:11:46;;;;;;;23.35;13.68;;;;;;;9.37;74.05;101718.38;5094714;28;20591;-55
2023/05/14 02:14:14;;;;;;;16.05;13.73;;;;;;;9.34;74.18;101721.09;5097600;28;20109;-55
2023/05/14 02:16:40;;;;;;;22.42;14.32;;;;;;;9.35;73.78;101723.69;5103235;28;20090;-55
2023/05/14 02:19:07;;;;;;;16.63;12.80;;;;;;;9.40;73.30;101727.97;5095005;28;20098;-55
2023/05/14 02:21:34;;;;;;;16.92;14.23;;;;;;;9.40;73.94;101722.69;5114071;28;20048;-55
2023/05/14 02:24:00;;;;;;;18.58;14.48;;;;;;;9.40;73.69;101718.31;5108278;28;20332;-56
2023/05/14 02:26:27;;;;;;;18.05;14.32;;;;;;;9.38;73.50;101717.44;5097100;28;20051;-56
2023/05/14 02:28:54;;;;;;;21.23;14.85;;;;;;;9.36;73.74;101722.75;5099492;28;20061;-56
2023/05/14 02:31:20;;;;;;;20.77;13.65;;;;;;;9.37;73.27;101713.09;5111319;28;20055;-55
2023/05/14 02:33:47;;;;;;;18.83;13.82;;;;;;;9.36;73.70;101717.47;5074317;28;20058;-55
2023/05/14 02:36:13;;;;;;;18.73;13.50;;;;;;;9.36;73.73;101716.63;5074423;28;20056;-56
2023/05/14 02:38:40;;;;;;;26.40;14.15;;;;;;;9.35;73.84;101715.78;5076885;28;20048;-55
2023/05/14 02:41:06;;;;;;;20.35;14.02;;;;;;;9.33;73.55;101717.59;5084948;28;20451;-56
2023/05/14 02:43:32;;;;;;;21.25;13.40;;;;;;;9.31;73.52;101716.75;5105324;28;20060;-56
2023/05/14 02:45:59;;;;;;;21.80;14.80;;;;;;;9.30;73.85;101711.50;5092479;28;20059;-55
2023/05/14 02:48:25;;;;;;;18.25;13.52;;;;;;;9.25;73.55;101711.63;5092136;28;20050;-55
2023/05/14 02:50:52;;;;;;;18.63;13.95;;;;;;;9.24;74.28;101712.53;5092421;28;20052;-56
2023/05/14 02:53:18;;;;;;;20.35;13.93;;;;;;;9.20;74.17;101700.31;5094542;28;20417;-55
2023/05/14 02:55:45;;;;;;;16.77;14.00;;;;;;;9.20;74.41;101710.88;5094061;28;20044;-56
2023/05/14 02:58:11;;;;;;;19.00;14.25;;;;;;;9.19;74.15;101704.72;5094471;28;20051;-55
2023/05/14 03:00:38;;;;;;;17.77;13.57;;;;;;;9.18;73.88;101716.16;5105371;28;20120;-56
2023/05/14 03:03:05;;;;;;;17.50;13.43;;;;;;;9.18;74.09;101710.03;5094043;28;20052;-55
2023/05/14 03:05:32;;;;;;;21.08;14.25;;;;;;;9.18;74.21;101712.69;5101527;28;20604;-56
2023/05/14 03:07:58;;;;;;;19.63;13.43;;;;;;;9.17;74.24;101716.22;5108321;28;20064;-55
2023/05/14 03:10:25;;;;;;;20.50;13.68;;;;;;;9.16;74.50;101719.78;5105218;28;20063;-56
2023/05/14 03:12:52;;;;;;;22.90;14.80;;;;;;;9.16;74.34;101714.50;5094306;28;20088;-56
2023/05/14 03:15:18;;;;;;;19.17;14.80;;;;;;;9.12;73.93;101708.44;5108896;28;20104;-56
2023/05/14 03:17:45;;;;;;;18.90;13.82;;;;;;;9.13;74.59;101717.19;5084089;28;20404;-55
2023/05/14 03:20:12;;;;;;;18.23;13.57;;;;;;;9.10;74.07;101714.63;5075965;28;20250;-56
2023/05/14 03:22:38;;;;;;;19.17;14.57;;;;;;;9.09;74.00;101713.78;5073424;28;20053;-55
2023/05/14 03:25:05;;;;;;;17.02;12.95;;;;;;;9.13;74.13;101706.66;5078473;28;20051;-56
2023/05/14 03:27:32;;;;;;;16.60;13.02;;;;;;;9.17;74.08;101711.81;5105024;28;20437;-56
2023/05/14 03:29:59;;;;;;;17.00;13.65;;;;;;;9.18;74.04;101707.41;5096421;28;20051;-56
2023/05/14 03:32:26;;;;;;;18.15;14.00;;;;;;;9.19;74.08;101701.22;5097439;28;20059;-55
2023/05/14 03:34:52;;;;;;;20.35;13.85;;;;;;;9.21;73.92;101706.47;5093502;28;20056;-56
2023/05/14 03:37:19;;;;;;;17.30;13.40;;;;;;;9.24;73.95;101701.97;5105031;28;20056;-55
2023/05/14 03:39:45;;;;;;;18.55;14.35;;;;;;;9.29;74.04;101705.38;5093331;28;20098;-56
2023/05/14 03:42:12;;;;;;;21.30;13.80;;;;;;;9.41;73.29;101705.97;5097795;28;20101;-55
2023/05/14 03:44:38;;;;;;;19.65;13.30;;;;;;;9.52;72.77;101701.28;5094041;28;20044;-55
2023/05/14 03:47:05;;;;;;;21.02;13.38;;;;;;;9.60;72.68;101701.09;5092818;28;20467;-55
2023/05/14 03:49:32;;;;;;;18.40;13.43;;;;;;;9.69;72.74;101707.00;5097614;28;20043;-55
2023/05/14 03:51:58;;;;;;;17.08;12.93;;;;;;;9.77;71.97;101703.25;5100847;28;20475;-56
2023/05/14 03:54:25;;;;;;;16.52;12.77;;;;;;;9.87;71.98;101704.72;5102723;28;20059;-55
2023/05/14 03:56:51;;;;;;;16.70;13.02;;;;;;;9.89;71.17;101700.31;5081022;28;20044;-55
2023/05/14 03:59:18;;;;;;;20.05;12.98;;;;;;;9.90;71.39;101702.88;5105111;28;20096;-55
2023/05/14 04:01:44;;;;;;;20.88;13.70;;;;;;;9.93;71.26;101701.94;5097573;28;20067;-56
2023/05/14 04:04:11;;;;;;;24.88;14.05;;;;;;;9.99;71.25;101699.13;5097594;28;20116;-55
2023/05/14 04:06:37;;;;;;;17.63;12.93;;;;;;;9.99;71.78;101700.88;5084912;28;20387;-55
2023/05/14 04:09:04;;;;;;;19.02;14.35;;;;;;;9.99;71.90;101696.47;5073235;28;20109;-55
2023/05/14 04:11:30;;;;;;;18.42;13.73;;;;;;;10.08;70.89;101700.63;5083836;28;20063;-55
2023/05/14 04:13:57;;;;;;;15.70;12.45;;;;;;;10.16;70.98;101700.41;5084872;28;20052;-56
2023/05/14 04:16:23;;;;;;;17.20;12.43;;;;;;;10.21;70.47;101698.50;5075409;28;20470;-55
2023/05/14 04:18:50;;;;;;;18.73;13.32;;;;;;;10.25;70.44;101686.97;5085913;28;20052;-56
2023/05/14 04:21:16;;;;;;;16.60;12.27;;;;;;;10.31;70.28;101692.03;5100065;28;20090;-56
2023/05/14 04:23:43;;;;;;;21.30;12.13;;;;;;;10.37;69.98;101685.75;5103988;28;20047;-55
2023/05/14 04:26:10;;;;;;;17.40;12.63;;;;;;;10.39;69.72;101676.84;5090977;28;20116;-55
2023/05/14 04:28:36;;;;;;;18.08;12.15;;;;;;;10.43;69.81;101686.44;5092877;28;20044;-56
2023/05/14 04:31:03;;;;;;;18.15;11.90;;;;;;;10.42;69.47;101679.41;5094511;28;20048;-56
2023/05/14 04:33:29;;;;;;;18.02;13.32;;;;;;;10.45;69.10;101687.25;5088187;28;20645;-56
2023/05/14 04:35:56;;;;;;;17.33;12.65;;;;;;;10.50;69.48;101680.97;5092900;28;20055;-55
2023/05/14 04:38:22;;;;;;;24.63;13.25;;;;;;;10.57;69.13;101682.50;5075149;28;20044;-55
2023/05/14 04:40:49;;;;;;;18.35;13.18;;;;;;;10.54;69.40;101679.94;5102240;28;20121;-56
2023/05/14 04:43:16;;;;;;;18.70;12.27;;;;;;;10.59;69.72;101680.66;5114815;28;20051;-56
2023/05/14 04:45:43;;;;;;;16.33;12.32;;;;;;;10.60;69.27;101682.41;5099896;28;20044;-56
2023/05/14 04:48:09;;;;;;;16.38;11.98;;;;;;;10.58;69.99;101684.25;5081407;28;20051;-55
2023/05/14 04:50:36;;;;;;;17.70;12.82;;;;;;;10.67;69.10;101676.00;5097942;28;20082;-55
2023/05/14 04:53:02;;;;;;;20.88;13.00;;;;;;;10.66;69.54;101676.94;5094690;28;20048;-55
2023/05/14 04:55:29;;;;;;;19.33;12.38;;;;;;;10.72;69.65;101681.16;5115769;28;20048;-55
2023/05/14 04:57:55;;;;;;;18.15;13.05;;;;;;;10.81;69.09;101675.59;5107376;28;20066;-56
2023/05/14 05:00:22;;;;;;;17.33;12.98;;;;;;;10.83;68.76;101669.31;5096656;28;20048;-56
2023/05/14 05:02:49;;;;;;;17.20;11.55;;;;;;;10.90;68.61;101675.25;5104617;28;20047;-55
2023/05/14 05:05:16;;;;;;;15.73;11.15;;;;;;;11.03;68.20;101683.66;5112931;28;20052;-55
2023/05/14 05:07:42;;;;;;;25.80;12.73;;;;;;;11.13;67.79;101682.47;5116462;28;20112;-55
2023/05/14 05:10:09;;;;;;;23.13;11.80;;;;;;;11.14;67.13;101672.75;5116771;28;20051;-57
2023/05/14 05:12:35;;;;;;;17.67;10.90;;;;;;;11.28;67.44;101672.25;5116692;28;20066;-56
2023/05/14 05:15:02;;;;;;;12.55;10.13;;;;;;;11.36;65.76;101673.75;5108069;28;20372;-57
2023/05/14 05:17:29;;;;;;;27.80;12.38;;;;;;;11.45;66.15;101672.56;5102739;28;20059;-56
2023/05/14 05:19:55;;;;;;;19.33;9.20;;;;;;;11.52;65.24;101663.50;5096642;28;20059;-56
2023/05/14 05:22:22;;;;;;;17.88;9.32;;;;;;;11.56;65.53;101665.13;5116844;28;20048;-55
2023/05/14 05:24:49;;;;;;;16.60;9.57;;;;;;;11.64;64.74;101662.19;5109931;28;20060;-56
2023/05/14 05:27:15;;;;;;;15.70;9.90;;;;;;;11.92;62.59;101663.88;5085567;28;20083;-56
2023/05/14 05:29:43;;;;;;;16.15;8.95;;;;;;;12.06;61.98;101666.91;5102867;28;20135;-55
2023/05/14 05:32:10;;;;;;;13.55;8.75;;;;;;;12.17;61.38;101671.78;5112661;28;20460;-55
2023/05/14 05:34:36;;;;;;;17.65;8.70;;;;;;;12.25;61.43;101663.53;5107395;28;20101;-55
2023/05/14 05:37:04;;;;;;;16.23;8.93;;;;;;;12.33;60.52;101665.91;5095751;28;20079;-55
2023/05/14 05:39:33;;;;;;;11.27;8.52;;;;;;;12.42;60.15;101665.53;5109389;28;20074;-55
2023/05/14 05:42:03;;;;;;;17.58;7.60;;;;;;;12.57;59.89;101662.28;5109380;28;20448;-55
2023/05/14 05:44:30;;;;;;;13.98;8.30;;;;;;;12.76;57.78;101661.56;5102355;28;20056;-55
2023/05/14 05:46:56;;;;;;;11.68;7.93;;;;;;;12.84;56.75;101655.00;5096139;28;20044;-55
2023/05/14 05:49:23;;;;;;;9.23;7.13;;;;;;;12.99;56.57;101661.47;5116127;28;20142;-55
2023/05/14 05:51:49;;;;;;;9.55;7.43;;;;;;;13.04;56.53;101664.81;5098803;28;20064;-55
2023/05/14 05:54:16;;;;;;;13.90;7.70;;;;;;;13.17;54.81;101659.84;5079182;28;20067;-55
2023/05/14 05:56:43;;;;;;;12.20;7.35;;;;;;;13.30;54.63;101659.31;5080673;28;20048;-55
2023/05/14 05:59:09;;;;;;;11.50;6.53;;;;;;;13.37;54.14;101655.50;5080271;28;20048;-56
2023/05/14 06:01:36;;;;;;;16.13;6.78;;;;;;;13.50;54.23;101653.19;5087321;28;20104;-55
2023/05/14 06:04:05;;;;;;;12.13;7.00;;;;;;;13.63;53.40;101656.16;5095197;28;20489;-56
2023/05/14 06:06:31;;;;;;;9.80;6.50;;;;;;;13.74;52.99;101660.06;5092380;28;20052;-55
2023/05/14 06:08:58;;;;;;;12.25;7.45;;;;;;;13.93;51.84;101664.56;5084676;28;20056;-56
2023/05/14 06:11:25;;;;;;;11.23;7.45;;;;;;;13.99;51.84;101653.66;5093082;28;20078;-55
2023/05/14 06:13:52;;;;;;;16.15;8.10;;;;;;;14.03;51.48;101652.59;5093394;28;20463;-55
2023/05/14 06:16:18;;;;;;;9.73;7.18;;;;;;;14.10;51.80;101645.19;5094870;28;20047;-55
2023/05/14 06:18:45;;;;;;;9.10;6.85;;;;;;;14.18;51.72;101658.13;5079455;28;20067;-55
2023/05/14 06:21:12;;;;;;;13.15;6.07;;;;;;;14.36;50.85;101657.25;5074633;28;20608;-55
2023/05/14 06:23:38;;;;;;;9.82;6.65;;;;;;;14.53;50.85;101655.59;5076086;28;20048;-55
2023/05/14 06:26:05;;;;;;;12.20;7.22;;;;;;;14.59;49.68;101648.22;5078794;28;20048;-55
2023/05/14 06:28:31;;;;;;;11.57;6.30;;;;;;;14.63;49.57;101664.88;5092061;28;20048;-56
2023/05/14 06:30:58;;;;;;;9.88;6.20;;;;;;;14.57;50.26;101654.53;5098859;28;20059;-54
2023/05/14 06:33:29;;;;;;;11.98;6.28;;;;;;;14.47;51.16;101657.63;5095055;28;20060;-55
2023/05/14 06:35:58;;;;;;;9.75;6.85;;;;;;;14.42;50.10;101662.31;5086569;28;20076;-55
2023/05/14 06:38:24;;;;;;;7.20;5.60;;;;;;;14.40;50.75;101658.84;5075626;28;20049;-55
2023/05/14 06:40:54;;;;;;;14.05;6.00;;;;;;;14.36;50.99;101657.25;5074234;28;20514;-55
2023/05/14 06:43:21;;;;;;;15.10;6.10;;;;;;;14.37;50.84;101664.31;5075295;28;20086;-55
2023/05/14 06:45:51;;;;;;;9.73;5.68;;;;;;;14.38;51.14;101658.03;5089552;28;20105;-56
2023/05/14 06:48:18;;;;;;;15.18;6.35;;;;;;;14.38;51.03;101650.06;5095343;28;20106;-55
2023/05/14 06:50:46;;;;;;;11.70;6.63;;;;;;;14.40;50.86;101653.53;5093751;28;20040;-55
2023/05/14 06:53:13;;;;;;;10.80;6.97;;;;;;;14.45;51.02;101656.84;5094446;28;20059;-55
2023/05/14 06:55:40;;;;;;;11.73;5.85;;;;;;;14.60;51.25;101655.28;5103952;28;20047;-55
2023/05/14 06:58:07;;;;;;;7.47;5.68;;;;;;;14.73;50.05;101655.53;5115029;28;20052;-55
2023/05/14 07:00:33;;;;;;;11.90;6.13;;;;;;;15.02;49.35;101662.09;5102100;28;20440;-55
2023/05/14 07:03:00;;;;;;;11.20;6.22;;;;;;;15.17;49.27;101655.13;5094123;28;20109;-55
2023/05/14 07:05:27;;;;;;;15.43;6.45;;;;;;;15.28;48.51;101656.38;5100631;28;20050;-55
2023/05/14 07:07:53;;;;;;;9.05;6.10;;;;;;;15.38;48.76;101657.63;5093264;28;20641;-55
2023/05/14 07:10:20;;;;;;;11.68;7.32;;;;;;;15.52;48.04;101655.09;5102733;28;20044;-55
2023/05/14 07:12:46;;;;;;;14.18;5.85;;;;;;;15.52;47.72;101649.78;5103084;28;20623;-55
2023/05/14 07:15:13;;;;;;;7.68;5.78;;;;;;;15.63;47.89;101651.00;5094816;28;20052;-55
2023/05/14 07:17:40;;;;;;;7.70;6.03;;;;;;;15.76;47.31;101646.81;5094798;28;20044;-54
2023/05/14 07:20:07;;;;;;;10.27;5.78;;;;;;;16.07;47.15;101640.69;5092059;28;20040;-54
2023/05/14 07:22:33;;;;;;;11.57;6.22;;;;;;;16.10;46.33;101642.31;5102216;28;20054;-55
2023/05/14 07:25:00;;;;;;;13.40;6.30;;;;;;;16.19;45.94;101648.97;5104129;28;20048;-56
2023/05/14 07:27:26;;;;;;;13.45;5.88;;;;;;;16.25;45.77;101643.25;5104895;28;20363;-55
2023/05/14 07:29:53;;;;;;;10.90;5.32;;;;;;;16.29;46.29;101643.00;5097458;28;20047;-55
2023/05/14 07:32:19;;;;;;;9.88;5.72;;;;;;;16.47;45.63;101640.25;5102180;28;20048;-55
2023/05/14 07:34:46;;;;;;;12.20;6.55;;;;;;;16.39;46.10;101638.03;5107317;28;20333;-55
2023/05/14 07:37:12;;;;;;;8.35;4.70;;;;;;;16.51;46.44;101626.66;5098149;28;20565;-55
2023/05/14 07:39:40;;;;;;;9.30;5.93;;;;;;;16.95;45.34;101621.53;5092576;28;20044;-55
2023/05/14 07:42:07;;;;;;;8.90;5.72;;;;;;;16.82;44.89;101624.91;5092944;28;20607;-55
2023/05/14 07:44:33;;;;;;;11.27;6.25;;;;;;;16.96;44.84;101624.13;5095343;28;20048;-55
2023/05/14 07:47:00;;;;;;;11.80;5.32;;;;;;;17.21;44.82;101622.66;5097098;28;20081;-55
2023/05/14 07:49:26;;;;;;;9.13;5.88;;;;;;;17.61;44.26;101620.25;5095963;28;20051;-55
2023/05/14 07:51:53;;;;;;;11.93;6.20;;;;;;;17.70;43.21;101619.66;5097928;28;20051;-55
2023/05/14 07:54:19;;;;;;;16.02;6.65;;;;;;;17.82;42.79;101612.72;5094493;28;20052;-55
2023/05/14 07:56:46;;;;;;;12.02;5.32;;;;;;;17.82;42.39;101617.19;5092770;28;20055;-55
2023/05/14 07:59:12;;;;;;;11.52;6.53;;;;;;;17.70;42.28;101619.66;5100648;28;20051;-56
2023/05/14 08:01:39;;;;;;;7.65;5.20;;;;;;;17.83;42.84;101613.56;5092810;28;20044;-55
2023/05/14 08:04:05;;;;;;;7.90;5.07;;;;;;;18.22;42.26;101620.06;5106715;28;20662;-55
2023/05/14 08:06:32;;;;;;;16.08;6.18;;;;;;;18.41;42.52;101612.56;5103313;28;20051;-55
2023/05/14 08:08:59;;;;;;;8.15;5.18;;;;;;;18.28;41.94;101608.97;5099089;28;20603;-57
2023/05/14 08:11:25;;;;;;;10.27;5.18;;;;;;;18.50;41.34;101609.28;5097151;28;20052;-55
2023/05/14 08:13:52;;;;;;;7.60;5.50;;;;;;;18.65;40.42;101611.91;5092871;28;20051;-55
2023/05/14 08:16:18;;;;;;;8.43;4.57;;;;;;;18.59;39.64;101597.09;5081933;28;20053;-55
2023/05/14 08:18:45;;;;;;;9.07;4.95;;;;;;;18.88;39.69;101597.88;5072325;28;20048;-55
2023/05/14 08:21:12;;;;;;;8.68;4.63;;;;;;;18.96;39.87;101599.16;5085370;28;20054;-56
2023/05/14 08:23:38;;;;;;;11.82;5.90;;;;;;;18.99;39.78;101604.31;5098029;28;20044;-56
2023/05/14 08:26:05;;;;;;;7.70;4.68;;;;;;;18.93;39.88;101594.00;5094765;28;20047;-57
2023/05/14 08:28:31;;;;;;;7.10;4.00;;;;;;;19.19;38.92;101593.13;5093472;28;20051;-55
2023/05/14 08:30:57;;;;;;;9.35;4.25;;;;;;;19.20;39.12;101584.09;5098096;28;20116;-55
2023/05/14 08:33:24;;;;;;;14.38;4.70;;;;;;;19.22;38.64;101584.88;5099714;28;20109;-55
2023/05/14 08:35:52;;;;;;;6.68;3.95;;;;;;;19.20;38.83;101584.09;5099489;28;20051;-54
2023/05/14 08:38:18;;;;;;;8.98;4.38;;;;;;;18.92;38.58;101584.28;5089987;28;20056;-55
2023/05/14 08:40:55;;;;;;;6.57;4.20;;;;;;;18.99;38.61;101583.75;5096562;28;20036;-55
2023/05/14 08:43:25;;;;;;;9.52;4.38;;;;;;;18.92;38.91;101576.25;5100564;28;20456;-55
2023/05/14 08:45:57;;;;;;;10.40;4.17;;;;;;;18.92;38.05;101576.25;5108784;28;20060;-55
2023/05/14 08:48:27;;;;;;;5.30;4.15;;;;;;;19.02;38.25;101578.16;5100299;28;20043;-55
2023/05/14 08:50:54;;;;;;;6.95;4.53;;;;;;;19.10;37.50;101563.41;5096409;28;20047;-55
2023/05/14 08:53:21;;;;;;;10.70;4.32;;;;;;;19.22;37.22;101563.44;5107034;28;20062;-55
2023/05/14 08:55:50;;;;;;;10.73;4.65;;;;;;;18.95;37.27;101565.31;5083746;28;20069;-55
2023/05/14 08:58:16;;;;;;;8.05;4.70;;;;;;;19.05;37.91;101566.41;5103863;28;20066;-55
2023/05/14 09:00:43;;;;;;;7.25;3.63;;;;;;;19.22;37.96;101563.44;5119037;27;20108;-55
2023/05/14 09:03:10;;;;;;;7.68;4.57;;;;;;;19.23;37.11;101559.75;5097157;28;20514;-56
2023/05/14 09:05:38;;;;;;;6.97;4.15;;;;;;;19.55;36.79;101548.63;5097831;28;20088;-56
2023/05/14 09:08:04;;;;;;;6.93;4.47;;;;;;;19.87;36.01;101552.66;5088158;28;20609;-55
2023/05/14 09:10:31;;;;;;;7.78;3.90;;;;;;;20.10;36.15;101557.19;5091096;28;20087;-55
2023/05/14 09:12:58;;;;;;;24.00;4.75;;;;;;;20.17;35.33;101549.56;5088344;28;20071;-55
2023/05/14 09:15:27;;;;;;;10.15;3.85;;;;;;;20.12;35.04;101552.59;5091975;28;20109;-56
2023/05/14 09:17:55;;;;;;;17.07;4.63;;;;;;;20.33;35.69;101539.38;5095005;28;20131;-55
2023/05/14 09:20:23;;;;;;;7.60;5.25;;;;;;;20.36;34.89;101547.22;5091746;28;20393;-56
2023/05/14 09:22:53;;;;;;;6.32;3.88;;;;;;;20.01;34.57;101543.59;5094613;28;20054;-55
2023/05/14 09:25:26;;;;;;;14.07;3.90;;;;;;;20.19;33.45;101536.91;5095673;28;20109;-55
2023/05/14 09:27:54;;;;;;;11.65;3.95;;;;;;;20.38;34.06;101535.50;5080566;28;20117;-55
2023/05/14 09:30:25;;;;;;;6.75;3.83;;;;;;;20.57;33.89;101527.78;5093941;28;20047;-55
2023/05/14 09:32:53;;;;;;;7.25;3.53;;;;;;;20.70;33.67;101531.28;5092747;28;20055;-56
2023/05/14 09:35:22;;;;;;;8.85;3.75;;;;;;;20.55;34.03;101524.38;5093798;28;20051;-55
2023/05/14 09:37:53;;;;;;;6.10;3.30;;;;;;;20.68;32.74;101530.56;5102378;28;20606;-56
2023/05/14 09:40:22;;;;;;;9.55;4.00;;;;;;;21.04;32.80;101523.31;5104387;28;20329;-56
2023/05/14 09:42:50;;;;;;;8.13;3.40;;;;;;;20.95;31.90;101524.03;5093615;28;20051;-55
2023/05/14 09:45:17;;;;;;;10.45;3.80;;;;;;;20.97;32.29;101510.47;5093669;28;20443;-55
2023/05/14 09:47:43;;;;;;;7.15;3.95;;;;;;;21.32;33.15;101518.47;5093519;28;20048;-55
2023/05/14 09:50:11;;;;;;;4.78;3.45;;;;;;;20.97;32.49;101511.31;5091902;28;20122;-56
2023/05/14 09:52:38;;;;;;;7.50;3.90;;;;;;;21.04;32.50;101507.19;5091163;28;20111;-56
2023/05/14 09:55:05;;;;;;;10.63;4.43;;;;;;;20.97;32.59;101505.94;5090567;28;20495;-56
2023/05/14 09:57:33;;;;;;;5.47;3.53;;;;;;;21.21;32.63;101502.31;5093908;28;20052;-55
2023/05/14 09:59:59;;;;;;;10.52;7.30;;;;;;;20.90;32.15;101488.59;5073499;28;20048;-54
2023/05/14 10:02:35;;;;;;;6.63;4.57;;;;;;;21.55;31.22;101488.91;5093668;28;20048;-54
2023/05/14 10:05:05;;;;;;;5.55;4.03;;;;;;;22.06;31.45;101482.94;5094930;28;20077;-55
2023/05/14 10:07:40;;;;;;;9.23;3.65;;;;;;;22.06;30.79;101484.78;5092830;28;20087;-54
2023/05/14 10:10:12;;;;;;;5.15;3.75;;;;;;;21.88;31.02;101479.91;5089795;28;20044;-55
2023/05/14 10:12:39;;;;;;;9.77;4.15;;;;;;;21.92;30.90;101472.44;5095444;28;20364;-54
2023/05/14 10:15:16;;;;;;;7.95;4.47;;;;;;;21.64;30.33;101477.38;5091304;28;20052;-54
2023/05/14 10:17:48;;;;;;;16.65;11.63;;;;;;;21.97;30.58;101459.44;5089919;28;20063;-56
2023/05/14 10:20:16;;;;;;;10.38;3.38;;;;;;;22.28;29.90;101446.13;5092126;28;20044;-59
2023/05/14 10:22:43;;;;;;;17.02;5.78;;;;;;;22.44;28.94;101454.63;5092633;28;20058;-54
2023/05/14 10:25:10;;;;;;;9.93;3.60;;;;;;;22.10;29.31;101452.09;5092937;28;20047;-54
2023/05/14 10:27:37;;;;;;;8.63;3.83;;;;;;;21.97;28.95;101446.00;5091869;28;20048;-54
2023/05/14 10:30:13;;;;;;;64.40;42.22;;;;;;;21.52;29.56;101446.97;5095259;28;20490;-56
2023/05/14 10:32:40;;;;;;;9.10;5.78;;;;;;;21.43;29.73;101451.25;5075456;28;20070;-55
2023/05/14 10:35:21;;;;;;;5.88;3.58;;;;;;;21.46;30.00;101452.81;5092699;28;20444;-56
2023/05/14 10:37:50;;;;;;;4.63;2.77;;;;;;;21.50;30.02;101437.34;5094062;28;20043;-56
2023/05/14 10:40:17;;;;;;;4.72;2.88;;;;;;;21.64;28.55;101426.28;5091639;28;20772;-54
2023/05/14 10:42:45;;;;;;;21.23;5.13;;;;;;;21.44;29.34;101428.72;5093329;28;20134;-55
2023/05/14 10:45:14;;;;;;;8.60;3.83;;;;;;;21.01;30.31;101437.56;5104654;27;20114;-55
2023/05/14 10:47:42;;;;;;;7.82;3.88;;;;;;;20.89;30.26;101438.50;5098049;28;20040;-55
2023/05/14 10:50:14;;;;;;;47.40;10.88;;;;;;;20.59;31.03;101442.59;5092237;28;20117;-55
2023/05/14 10:52:42;;;;;;;6.82;4.15;;;;;;;20.18;31.90;101433.19;5091090;28;20055;-55
2023/05/14 10:55:13;;;;;;;18.25;6.00;;;;;;;19.92;32.17;101430.63;5090345;28;20052;-55
2023/05/14 10:57:42;;;;;;;71.65;14.82;;;;;;;19.94;32.56;101435.88;5093831;28;20056;-55
2023/05/14 11:00:11;;;;;;;12.05;4.53;;;;;;;19.72;32.89;101436.59;5093257;28;20048;-55
2023/05/14 11:02:40;;;;;;;8.40;5.25;;;;;;;19.58;33.85;101430.41;5092152;28;20052;-55
2023/05/14 11:05:09;;;;;;;6.57;4.85;;;;;;;19.42;34.21;101432.50;5095752;28;20051;-56
2023/05/14 11:07:39;;;;;;;15.98;3.90;;;;;;;19.35;34.20;101433.91;5077741;28;20052;-55
2023/05/14 11:10:12;;;;;;;97.07;14.30;;;;;;;19.19;34.31;101435.00;5071812;28;20123;-55
2023/05/14 11:12:43;;;;;;;14.77;4.43;;;;;;;19.06;35.03;101431.47;5094539;28;20044;-56
2023/05/14 11:15:12;;;;;;;11.35;3.80;;;;;;;18.99;37.03;101428.38;5091982;28;20123;-55
2023/05/14 11:17:41;;;;;;;63.85;11.32;;;;;;;18.84;38.21;101416.91;5089148;28;20385;-55
2023/05/14 11:20:09;;;;;;;11.57;4.78;;;;;;;18.65;36.12;101422.69;5092350;28;20058;-55
2023/05/14 11:22:37;;;;;;;7.25;3.78;;;;;;;18.85;35.89;101413.28;5089938;28;20044;-56
2023/05/14 11:25:05;;;;;;;6.35;3.75;;;;;;;19.20;34.70;101411.75;5093423;28;20082;-55
2023/05/14 11:27:37;;;;;;;6.53;3.83;;;;;;;19.48;34.18;101415.94;5087288;28;20483;-54